Billings, MT

8:30 AM MDT on October 01, 2014 (GMT -0600)
Downtown Billings | Change Station
CLOSE
Current Station
Personal Weather Station
Location: Billings, MT
Elevation: 3127 ft
Nearby Weather Stations

Elev 3127 ft 45.78 °N, 108.50 °W | Updated 22 minutes ago

Mostly Cloudy
Mostly Cloudy
49.3 °F
Feels Like 49 °F
N
3.4
Wind Variable Wind from WSW
Gusts 5.6 mph

Today
High -- | Low -- °F
--% Chance of Precip.
Yesterday
High -- | Low -- °F
Precip. -- in
7:12 AM 6:53 PM
Waxing Crescent, 48% visible
Pressure 29.93 in
Visibility 10.0 miles
Clouds Scattered Clouds 5500 ft
Mostly Cloudy 9000 ft
Windchill 49 °F
Dew Point 38 °F
Humidity 65%
Rainfall -999.00 in
Snow Depth 2 in , 0 in , 0 in
UV 0 out of 12
Pollen 3.00 out of 12
Air Quality Not available.
Flu Activity Not available.
METAR KBIL 011353Z 30011G16KT 10SM SCT055 BKN090 09/01 A2994 RMK AO2 SLP133 T00890011

More Conditions Fewer Conditions

Pressure 29.93 in
Visibility 10.0 miles
Clouds Scattered Clouds 5500 ft
Mostly Cloudy 9000 ft
Windchill 49 °F
Dew Point 38 °F
Humidity 65%
Rainfall -999.00 in
Snow Depth 2 in , 0 in , 0 in
UV 0 out of 12
Pollen 3.00 out of 12
Air Quality Not available.
Flu Activity Not available.
METAR KBIL 011353Z 30011G16KT 10SM SCT055 BKN090 09/01 A2994 RMK AO2 SLP133 T00890011

More Conditions Fewer Conditions

10-Day Weather Forecast

Almanac

Astronomy

Oct. 01, 2014 Rise Set
Actual Time 7:12 AM MDT 6:53 PM MDT
Civil Twilight 6:42 AM MDT 7:23 PM MDT
Nautical Twilight 6:08 AM MDT 7:58 PM MDT
Astronomical Twilight 5:32 AM MDT 8:33 PM MDT
Moon 2:29 PM MDT No Moon Set
Length of Visible Light 12h 40m
Length of Day
11h 41m
Tomorrow will be 3m 11s shorter.
Waxing Crescent, 48% of the Moon is Illuminated
Today
Waxing Crescent
Oct 1
First Quarter
Oct 8
Full
Oct 15
Last Quarter
Oct 23
New

Today's Extremes

State Highs State Lows

Community

WunderPhotos

Upload Photos

1,757,960 photos uploaded!

Nearby

Snow Depth

Station Depth Elevation
Brackett Creek 2 in 7320 ft
Daisy Peak 0 in 7600 ft
Many Glacier 0 in 4900 ft
Waldron 1 in 5600 ft
Stuart Mountain 1 in 7400 ft

Earthquake Activity

City Distance Mag. Time & Date
No recent earthquake activity has been reported nearby.
Minimum magnitude displayed is 2.5.

Coastal Water Temperatures

Place Temperature
No Stations Reporting

Nearby Weather Stations